Time;durP1;ratioP1;P1;durP2;ratioP2;P2;SDS_P1;SDS_P2;PMS_P1;PMS_P2;Temp;Humidity;BMP_temperature;BMP_pressure;BME280_temperature;BME280_humidity;BME280_pressure;Samples;Min_cycle;Max_cycle;Signal;HPM_P1;HPM_P2
2023/09/01 00:01:51;;;;;;;;;;;;;;;21.78;59.06;100746.25;5028824;28;4140;-70
2023/09/01 00:04:26;;;;;;;;;;;;;;;21.77;59.16;100747.69;5024473;28;4561;-70
2023/09/01 00:06:52;;;;;;;;;;;;;;;21.78;58.96;100763.56;5028985;28;4130;-70
2023/09/01 00:09:19;;;;;;;;;;;;;;;21.78;59.05;100755.66;5027795;28;4512;-70
2023/09/01 00:11:45;;;;;;;;;;;;;;;21.77;59.11;100757.06;5030095;28;4054;-69
2023/09/01 00:14:11;;;;;;;;;;;;;;;21.76;58.84;100764.22;5025379;28;4265;-70
2023/09/01 00:16:38;;;;;;;;;;;;;;;21.75;59.09;100765.63;5025692;28;4040;-69
2023/09/01 00:19:04;;;;;;;;;;;;;;;21.74;58.90;100764.88;5030366;28;4213;-69
2023/09/01 00:21:31;;;;;;;;;;;;;;;21.75;58.78;100760.59;5028553;28;4240;-70
2023/09/01 00:23:57;;;;;;;;;;;;;;;21.74;59.01;100764.16;5029518;28;4223;-70
2023/09/01 00:26:23;;;;;;;;;;;;;;;21.73;58.90;100763.41;5024843;28;4031;-70
2023/09/01 00:28:50;;;;;;;;;;;;;;;21.74;59.10;100775.69;5026823;28;3971;-70
2023/09/01 00:31:17;;;;;;;;;;;;;;;21.74;58.78;100764.88;5025105;28;4157;-69
2023/09/01 00:33:44;;;;;;;;;;;;;;;21.73;59.00;100763.41;5029147;28;4208;-70
2023/09/01 00:36:10;;;;;;;;;;;;;;;21.72;58.86;100750.41;5039927;28;4171;-69
2023/09/01 00:38:37;;;;;;;;;;;;;;;21.73;58.97;100760.50;5026887;28;4050;-70
2023/09/01 00:41:06;;;;;;;;;;;;;;;21.72;58.96;100761.94;5021818;28;4199;-70
2023/09/01 00:43:33;;;;;;;;;;;;;;;21.72;59.11;100764.81;5025338;28;4046;-69
2023/09/01 00:46:00;;;;;;;;;;;;;;;21.71;59.04;100760.44;5026573;28;4190;-69
2023/09/01 00:48:27;;;;;;;;;;;;;;;21.72;59.05;100756.16;5023440;28;4151;-70
2023/09/01 00:50:53;;;;;;;;;;;;;;;21.71;59.00;100760.44;5026444;28;4111;-69
2023/09/01 00:53:20;;;;;;;;;;;;;;;21.70;59.02;100770.50;5026942;28;4217;-70
2023/09/01 00:55:47;;;;;;;;;;;;;;;21.69;58.96;100763.25;5027655;28;4329;-69
2023/09/01 00:58:14;;;;;;;;;;;;;;;21.70;59.18;100764.72;5038410;28;4232;-69
2023/09/01 01:00:40;;;;;;;;;;;;;;;21.69;59.18;100759.63;5027740;28;4138;-70
2023/09/01 01:03:07;;;;;;;;;;;;;;;21.70;59.19;100767.59;5041540;28;5124;-70
2023/09/01 01:05:43;;;;;;;;;;;;;;;21.69;59.00;100757.50;5040220;28;4226;-69
2023/09/01 01:08:15;;;;;;;;;;;;;;;21.67;58.90;100757.41;5008495;28;4532;-70
2023/09/01 01:10:45;;;;;;;;;;;;;;;21.68;59.18;100761.75;5039946;28;4200;-69
2023/09/01 01:13:13;;;;;;;;;;;;;;;21.69;58.78;100759.63;5024909;28;4119;-70
2023/09/01 01:15:39;;;;;;;;;;;;;;;21.69;59.17;100762.50;5025152;28;4041;-70
2023/09/01 01:18:08;;;;;;;;;;;;;;;21.68;59.05;100767.53;5033458;28;4139;-70
2023/09/01 01:20:36;;;;;;;;;;;;;;;21.68;59.15;100767.53;5026106;28;4182;-70
2023/09/01 01:23:12;;;;;;;;;;;;;;;21.67;59.09;100760.28;5024095;28;4073;-63
2023/09/01 01:25:48;;;;;;;;;;;;;;;21.68;59.13;100770.41;5029500;28;4134;-70
2023/09/01 01:28:15;;;;;;;;;;;;;;;21.68;58.88;100767.53;5022835;28;4169;-70
2023/09/01 01:30:42;;;;;;;;;;;;;;;21.66;58.88;100770.31;5021720;28;4142;-69
2023/09/01 01:33:29;;;;;;;;;;;;;;;21.67;58.92;100759.53;5023415;28;4014;-70
2023/09/01 01:35:59;;;;;;;;;;;;;;;21.66;59.23;100753.03;5042327;28;4452;-70
2023/09/01 01:38:26;;;;;;;;;;;;;;;21.65;59.22;100754.44;5026334;28;4215;-69
2023/09/01 01:40:52;;;;;;;;;;;;;;;21.65;59.20;100745.81;5042916;28;4235;-69
2023/09/01 01:43:22;;;;;;;;;;;;;;;21.65;59.22;100751.56;5029935;28;4197;-69
2023/09/01 01:45:49;;;;;;;;;;;;;;;21.66;59.07;100740.78;5028681;28;4183;-69
2023/09/01 01:48:15;;;;;;;;;;;;;;;21.66;58.95;100750.16;5021552;28;4073;-69
2023/09/01 01:50:42;;;;;;;;;;;;;;;21.65;58.86;100750.84;5025030;28;4108;-69
2023/09/01 01:53:09;;;;;;;;;;;;;;;21.64;58.94;100755.84;5023870;28;4315;-69
2023/09/01 01:55:35;;;;;;;;;;;;;;;21.64;58.90;100750.06;5028092;28;4394;-70
2023/09/01 01:58:01;;;;;;;;;;;;;;;21.64;59.06;100755.84;5022512;28;4317;-70
2023/09/01 02:00:28;;;;;;;;;;;;;;;21.64;58.88;100755.84;5041301;28;5457;-69
2023/09/01 02:02:54;;;;;;;;;;;;;;;21.64;59.06;100755.09;5025535;28;4002;-73
2023/09/01 02:05:21;;;;;;;;;;;;;;;21.64;59.09;100755.84;5040713;28;4149;-69
2023/09/01 02:07:48;;;;;;;;;;;;;;;21.63;59.08;100747.88;5023281;28;4149;-61
2023/09/01 02:10:14;;;;;;;;;;;;;;;21.64;58.71;100760.88;5029763;28;4130;-62
2023/09/01 02:12:40;;;;;;;;;;;;;;;21.63;59.02;100763.00;5027005;28;6382;-61
2023/09/01 02:15:08;;;;;;;;;;;;;;;21.62;59.11;100755.75;5044722;28;4200;-61
2023/09/01 02:17:36;;;;;;;;;;;;;;;21.63;58.94;100747.88;5045034;28;4242;-61
2023/09/01 02:20:16;;;;;;;;;;;;;;;21.62;59.10;100755.75;5027537;28;4445;-62
2023/09/01 02:22:43;;;;;;;;;;;;;;;21.62;59.07;100758.63;5025407;28;4217;-61
2023/09/01 02:25:09;;;;;;;;;;;;;;;21.63;58.96;100747.88;5027847;28;4238;-62
2023/09/01 02:27:40;;;;;;;;;;;;;;;21.61;59.03;100757.16;5029572;28;4208;-62
2023/09/01 02:30:08;;;;;;;;;;;;;;;21.62;59.12;100752.13;5045914;28;4086;-62
2023/09/01 02:32:35;;;;;;;;;;;;;;;21.62;59.02;100763.66;5028871;28;4106;-61
2023/09/01 02:35:05;;;;;;;;;;;;;;;21.62;59.07;100763.66;5031973;28;4169;-61
2023/09/01 02:37:32;;;;;;;;;;;;;;;21.60;58.87;100761.47;5045710;28;5651;-61
2023/09/01 02:39:59;;;;;;;;;;;;;;;21.62;58.86;100769.41;5030837;28;4372;-61
2023/09/01 02:42:25;;;;;;;;;;;;;;;21.61;58.71;100767.94;5030389;28;4166;-61
2023/09/01 02:44:52;;;;;;;;;;;;;;;21.60;58.79;100766.47;5030553;28;3985;-61
2023/09/01 02:47:18;;;;;;;;;;;;;;;21.59;59.20;100771.47;5027590;28;4505;-61
2023/09/01 02:49:45;;;;;;;;;;;;;;;21.59;58.91;100765.72;5044231;28;4001;-61
2023/09/01 02:52:11;;;;;;;;;;;;;;;21.58;59.14;100767.13;5030203;28;4201;-61
2023/09/01 02:54:38;;;;;;;;;;;;;;;21.59;59.08;100776.50;5026988;28;4032;-61
2023/09/01 02:57:04;;;;;;;;;;;;;;;21.59;59.09;100765.00;5029964;28;4174;-61
2023/09/01 02:59:30;;;;;;;;;;;;;;;21.57;59.16;100771.41;5028231;28;4236;-61
2023/09/01 03:01:57;;;;;;;;;;;;;;;21.57;59.19;100768.53;5027541;28;4123;-61
2023/09/01 03:04:23;;;;;;;;;;;;;;;21.57;58.99;100774.28;5025670;28;5536;-61
2023/09/01 03:06:50;;;;;;;;;;;;;;;21.56;59.21;100767.06;5028459;28;4348;-61
2023/09/01 03:09:16;;;;;;;;;;;;;;;21.56;59.03;100772.81;5028293;28;4241;-61
2023/09/01 03:11:43;;;;;;;;;;;;;;;21.55;59.03;100771.31;5031092;28;4044;-61
2023/09/01 03:14:09;;;;;;;;;;;;;;;21.57;58.92;100777.16;5025220;28;4182;-61
2023/09/01 03:16:36;;;;;;;;;;;;;;;21.57;59.04;100773.56;5043502;28;4097;-61
2023/09/01 03:19:02;;;;;;;;;;;;;;;21.56;59.12;100769.94;5024486;28;4109;-62
2023/09/01 03:21:32;;;;;;;;;;;;;;;21.56;58.75;100775.69;5045187;28;4060;-61
2023/09/01 03:23:58;;;;;;;;;;;;;;;21.56;58.87;100780.72;5027562;28;4352;-61
2023/09/01 03:26:25;;;;;;;;;;;;;;;21.55;59.14;100777.09;5042989;28;4143;-61
2023/09/01 03:28:52;;;;;;;;;;;;;;;21.55;59.18;100788.59;5046476;28;4395;-61
2023/09/01 03:31:19;;;;;;;;;;;;;;;21.54;58.94;100781.38;5025249;28;4042;-61
2023/09/01 03:33:45;;;;;;;;;;;;;;;21.55;58.90;100782.84;5044923;28;4366;-61
2023/09/01 03:36:13;;;;;;;;;;;;;;;21.53;59.06;100789.28;5024518;28;4123;-61
2023/09/01 03:38:39;;;;;;;;;;;;;;;21.52;59.23;100784.16;5029079;28;4111;-61
2023/09/01 03:41:07;;;;;;;;;;;;;;;21.54;59.17;100787.13;5045454;28;4154;-61
2023/09/01 03:43:33;;;;;;;;;;;;;;;21.53;59.24;100785.63;5026672;28;4253;-61
2023/09/01 03:46:00;;;;;;;;;;;;;;;21.52;59.18;100789.94;5043821;28;4126;-61
2023/09/01 03:48:27;;;;;;;;;;;;;;;21.51;59.13;100783.44;5029149;28;4195;-61
2023/09/01 03:51:12;;;;;;;;;;;;;;;21.52;59.20;100784.16;5027238;28;4130;-61
2023/09/01 03:53:39;;;;;;;;;;;;;;;21.52;59.18;100789.94;5042188;28;4317;-61
2023/09/01 03:56:06;;;;;;;;;;;;;;;21.50;58.99;100781.94;5041000;28;4186;-61
2023/09/01 03:58:33;;;;;;;;;;;;;;;21.51;59.21;100783.44;5028686;28;4334;-61
2023/09/01 04:00:59;;;;;;;;;;;;;;;21.51;59.14;100788.47;5044414;28;4213;-61
2023/09/01 04:03:26;;;;;;;;;;;;;;;21.51;58.78;100791.34;5039813;28;4203;-61
2023/09/01 04:05:55;;;;;;;;;;;;;;;21.52;59.06;100789.94;5024701;28;4094;-61
2023/09/01 04:08:22;;;;;;;;;;;;;;;21.51;59.21;100794.22;5023894;28;3981;-61
2023/09/01 04:10:48;;;;;;;;;;;;;;;21.52;59.21;100793.56;5029644;28;4057;-61
2023/09/01 04:13:15;;;;;;;;;;;;;;;21.52;59.13;100799.31;5029728;28;4140;-61
2023/09/01 04:15:41;;;;;;;;;;;;;;;21.54;59.10;100801.53;5027396;28;4327;-61
2023/09/01 04:18:08;;;;;;;;;;;;;;;21.52;59.23;100792.81;5042514;28;4223;-61
2023/09/01 04:20:34;;;;;;;;;;;;;;;21.54;59.25;100804.41;5047213;28;5237;-62
2023/09/01 04:23:02;;;;;;;;;;;;;;;21.51;59.23;100800.72;5029286;28;4143;-61
2023/09/01 04:25:29;;;;;;;;;;;;;;;21.52;59.20;100804.34;5024331;28;4473;-61
2023/09/01 04:27:55;;;;;;;;;;;;;;;21.52;59.08;100807.22;5043859;28;4392;-61
2023/09/01 04:30:22;;;;;;;;;;;;;;;21.51;58.96;100809.38;5043972;28;4127;-61
2023/09/01 04:32:49;;;;;;;;;;;;;;;21.51;59.16;100806.50;5024740;28;4047;-61
2023/09/01 04:35:16;;;;;;;;;;;;;;;21.52;58.93;100812.97;5027981;28;4108;-62
2023/09/01 04:37:42;;;;;;;;;;;;;;;21.50;59.16;100804.25;5030748;28;4002;-62
2023/09/01 04:40:09;;;;;;;;;;;;;;;21.51;58.94;100806.50;5028495;28;4182;-62
2023/09/01 04:42:35;;;;;;;;;;;;;;;21.57;59.41;100813.88;5019995;28;4205;-70
2023/09/01 04:45:03;;;;;;;;;;;;;;;21.56;59.46;100818.19;5022825;28;4129;-68
2023/09/01 04:47:30;;;;;;;;;;;;;;;21.53;59.14;100806.56;5026203;28;3997;-69
2023/09/01 04:49:56;;;;;;;;;;;;;;;21.56;59.32;100803.78;5045337;28;4049;-69
2023/09/01 04:52:22;;;;;;;;;;;;;;;21.50;59.54;100815.78;5027017;28;4175;-69
2023/09/01 04:55:08;;;;;;;;;;;;;;;21.50;59.50;100802.09;5042280;28;4188;-69
2023/09/01 04:57:35;;;;;;;;;;;;;;;21.53;59.46;100814.44;5042814;28;4079;-69
2023/09/01 05:00:02;;;;;;;;;;;;;;;21.52;59.39;100807.22;5032431;28;4041;-69
2023/09/01 05:02:28;;;;;;;;;;;;;;;21.52;59.44;100815.88;5029069;28;4214;-69
2023/09/01 05:04:55;;;;;;;;;;;;;;;21.51;59.23;100820.88;5041796;28;4193;-69
2023/09/01 05:07:21;;;;;;;;;;;;;;;21.49;59.31;100815.03;5025823;28;4201;-70
2023/09/01 05:09:48;;;;;;;;;;;;;;;21.51;59.39;100823.03;5030169;28;4166;-69
2023/09/01 05:12:15;;;;;;;;;;;;;;;21.53;58.99;100820.97;5024811;28;4243;-69
2023/09/01 05:14:41;;;;;;;;;;;;;;;21.53;59.16;100823.84;5028245;28;4163;-69
2023/09/01 05:17:07;;;;;;;;;;;;;;;21.52;59.39;100821.63;5023347;28;4217;-69
2023/09/01 05:19:35;;;;;;;;;;;;;;;21.53;59.48;100825.97;5024710;28;4115;-70
2023/09/01 05:22:02;;;;;;;;;;;;;;;21.79;61.17;100822.69;5018126;28;4152;-68
2023/09/01 05:24:29;;;;;;;;;;;;;;;21.95;60.62;100829.09;5025926;28;5396;-70
2023/09/01 05:26:55;;;;;;;;;;;;;;;22.05;59.26;100826.59;5026720;28;4495;-68
2023/09/01 05:29:21;;;;;;;;;;;;;;;22.15;58.61;100824.13;5039007;28;4537;-69
2023/09/01 05:31:48;;;;;;;;;;;;;;;22.10;58.21;100825.34;5039563;28;4322;-69
2023/09/01 05:34:14;;;;;;;;;;;;;;;22.05;57.94;100835.25;5038376;28;4593;-68
2023/09/01 05:36:41;;;;;;;;;;;;;;;22.08;57.40;100830.31;5027780;28;4570;-68
2023/09/01 05:39:08;;;;;;;;;;;;;;;22.07;56.83;100826.69;5041601;28;4180;-68
2023/09/01 05:41:34;;;;;;;;;;;;;;;21.88;55.95;100830.28;5030772;28;4152;-70
2023/09/01 05:44:01;;;;;;;;;;;;;;;21.83;55.39;100822.84;5028054;28;4235;-68
2023/09/01 05:46:27;;;;;;;;;;;;;;;21.72;54.67;100819.56;5028432;28;4108;-69
2023/09/01 05:48:54;;;;;;;;;;;;;;;21.57;54.59;100834.78;5024759;28;4312;-68
2023/09/01 05:51:20;;;;;;;;;;;;;;;21.62;53.71;100838.59;5044442;28;4130;-69
2023/09/01 05:53:47;;;;;;;;;;;;;;;21.62;54.06;100839.31;5027483;28;4111;-68
2023/09/01 05:56:13;;;;;;;;;;;;;;;21.51;54.02;100835.28;5024658;28;4170;-68
2023/09/01 05:58:40;;;;;;;;;;;;;;;21.39;54.17;100846.28;5028196;28;4180;-67
2023/09/01 06:01:06;;;;;;;;;;;;;;;21.37;54.44;100839.69;5025719;28;4139;-70
2023/09/01 06:03:32;;;;;;;;;;;;;;;21.46;54.58;100853.06;5027190;28;4172;-68
2023/09/01 06:05:59;;;;;;;;;;;;;;;21.52;54.60;100856.19;5029285;28;4267;-68
2023/09/01 06:08:25;;;;;;;;;;;;;;;21.52;54.89;100859.81;5022506;28;4120;-67
2023/09/01 06:11:02;;;;;;;;;;;;;;;21.49;54.99;100861.13;5024525;28;4038;-69
2023/09/01 06:13:29;;;;;;;;;;;;;;;21.09;55.49;100860.13;5024352;28;4220;-67
2023/09/01 06:15:55;;;;;;;;;;;;;;;21.30;55.04;100862.50;5023534;28;4133;-67
2023/09/01 06:18:21;;;;;;;;;;;;;;;21.36;55.48;100864.88;5024244;28;4024;-68
2023/09/01 06:20:48;;;;;;;;;;;;;;;21.30;55.26;100868.25;5037136;28;4187;-68
2023/09/01 06:23:14;;;;;;;;;;;;;;;21.34;55.52;100873.44;5027344;28;4158;-68
2023/09/01 06:25:41;;;;;;;;;;;;;;;21.44;55.21;100870.25;5029132;28;4154;-68
2023/09/01 06:28:07;;;;;;;;;;;;;;;21.47;55.34;100874.72;5023503;28;4918;-70
2023/09/01 06:30:33;;;;;;;;;;;;;;;21.51;55.33;100872.00;5024258;28;4232;-70
2023/09/01 06:33:00;;;;;;;;;;;;;;;21.55;55.67;100875.03;5024686;28;4177;-68
2023/09/01 06:35:26;;;;;;;;;;;;;;;21.53;55.99;100877.84;5027901;28;4136;-69
2023/09/01 06:37:53;;;;;;;;;;;;;;;21.52;56.04;100876.38;5024229;28;4041;-69
2023/09/01 06:40:19;;;;;;;;;;;;;;;21.52;55.89;100876.38;5028472;28;4106;-69
2023/09/01 06:42:46;;;;;;;;;;;;;;;21.52;55.92;100870.59;5029241;28;4197;-68
2023/09/01 06:45:13;;;;;;;;;;;;;;;21.53;56.47;100866.31;5024231;28;4041;-68
2023/09/01 06:47:39;;;;;;;;;;;;;;;21.53;56.52;100861.31;5031735;28;4002;-70
2023/09/01 06:50:06;;;;;;;;;;;;;;;21.54;56.64;100874.31;5025363;28;4187;-69
2023/09/01 06:52:32;;;;;;;;;;;;;;;21.56;56.74;100873.66;5027634;28;4555;-68
2023/09/01 06:54:59;;;;;;;;;;;;;;;21.55;56.49;100877.94;5027245;28;4219;-68
2023/09/01 06:57:26;;;;;;;;;;;;;;;21.53;56.76;100883.59;5036023;28;4127;-68
2023/09/01 06:59:52;;;;;;;;;;;;;;;21.54;56.68;100890.84;5033536;28;4238;-69
2023/09/01 07:02:18;;;;;;;;;;;;;;;21.52;56.76;100893.66;5034904;28;4181;-68
2023/09/01 07:04:45;;;;;;;;;;;;;;;21.53;56.95;100878.59;5032512;28;4972;-70
2023/09/01 07:07:11;;;;;;;;;;;;;;;21.53;56.85;100883.59;5034369;28;4182;-68
2023/09/01 07:09:37;;;;;;;;;;;;;;;21.54;56.82;100888.72;5031302;28;4960;-68
2023/09/01 07:12:04;;;;;;;;;;;;;;;21.55;57.06;100889.44;5033743;28;4152;-69
2023/09/01 07:14:30;;;;;;;;;;;;;;;21.57;57.59;100886.66;5028915;28;4186;-68
2023/09/01 07:16:57;;;;;;;;;;;;;;;21.91;57.22;100898.13;5029856;28;4309;-68
2023/09/01 07:19:23;;;;;;;;;;;;;;;21.96;56.46;100897.63;5031025;28;4152;-68
2023/09/01 07:21:50;;;;;;;;;;;;;;;22.02;56.65;100902.91;5033452;28;4201;-68
2023/09/01 07:24:16;;;;;;;;;;;;;;;22.07;56.34;100904.53;5028908;28;4184;-69
2023/09/01 07:26:43;;;;;;;;;;;;;;;22.11;56.47;100916.25;5029781;28;4133;-68
2023/09/01 07:29:09;;;;;;;;;;;;;;;22.16;56.33;100912.13;5029909;28;5079;-71
2023/09/01 07:31:36;;;;;;;;;;;;;;;22.20;56.17;100911.56;5029734;28;4540;-70
2023/09/01 07:34:02;;;;;;;;;;;;;;;22.23;55.84;100915.28;5028925;28;4036;-69
2023/09/01 07:36:28;;;;;;;;;;;;;;;20.73;56.04;100917.56;5027682;28;4218;-74
2023/09/01 07:38:55;;;;;;;;;;;;;;;19.84;58.52;100914.78;5027718;28;4039;-72
2023/09/01 07:41:21;;;;;;;;;;;;;;;19.20;59.21;100925.91;5031108;28;4174;-72
2023/09/01 07:43:49;;;;;;;;;;;;;;;19.96;58.76;100920.38;5033413;28;4169;-72
2023/09/01 07:46:15;;;;;;;;;;;;;;;19.65;58.41;100928.19;5029517;28;4102;-73
2023/09/01 07:48:41;;;;;;;;;;;;;;;19.84;58.61;100926.25;5034830;28;3990;-73
2023/09/01 07:51:08;;;;;;;;;;;;;;;19.62;58.99;100917.97;5031789;28;4118;-73
2023/09/01 07:53:34;;;;;;;;;;;;;;;19.36;59.27;100919.53;5032181;28;4068;-75
2023/09/01 07:56:03;;;;;;;;;;;;;;;19.41;59.76;100921.94;5029422;28;4322;-72
2023/09/01 07:58:29;;;;;;;;;;;;;;;19.64;59.62;100925.97;5033039;28;4181;-75
2023/09/01 08:00:55;;;;;;;;;;;;;;;19.67;58.89;100918.91;5031142;28;5274;-76
2023/09/01 08:03:22;;;;;;;;;;;;;;;19.70;59.28;100922.66;5028735;28;4142;-75
2023/09/01 08:05:48;;;;;;;;;;;;;;;19.49;59.08;100918.75;5030279;28;4413;-75
2023/09/01 08:08:15;;;;;;;;;;;;;;;19.57;59.82;100919.16;5027327;28;4216;-75
2023/09/01 08:10:42;;;;;;;;;;;;;;;19.91;59.04;100918.69;5034246;28;4096;-84
2023/09/01 08:13:09;;;;;;;;;;;;;;;20.66;57.06;100928.03;5030571;28;4103;-87
2023/09/01 08:15:35;;;;;;;;;;;;;;;20.98;56.16;100925.16;5027821;28;4221;-86
2023/09/01 08:18:02;;;;;;;;;;;;;;;21.12;56.13;100914.28;5032604;28;4405;-87
2023/09/01 08:20:29;;;;;;;;;;;;;;;20.93;56.06;100921.34;5034734;28;3969;-83
2023/09/01 08:22:55;;;;;;;;;;;;;;;20.40;57.56;100926.78;5032604;28;4272;-82
2023/09/01 08:25:22;;;;;;;;;;;;;;;20.33;57.87;100928.63;5050090;28;4066;-84
2023/09/01 08:27:48;;;;;;;;;;;;;;;20.21;58.11;100928.78;5032375;28;4351;-83
2023/09/01 08:30:14;;;;;;;;;;;;;;;20.03;58.49;100928.63;5027436;28;4320;-86
2023/09/01 08:32:41;;;;;;;;;;;;;;;20.13;58.03;100933.38;5034886;28;4105;-86
2023/09/01 08:35:08;;;;;;;;;;;;;;;20.03;58.61;100925.75;5034253;28;4068;-86
2023/09/01 08:37:34;;;;;;;;;;;;;;;20.38;58.12;100929.56;5032905;28;4274;-88
2023/09/01 08:40:00;;;;;;;;;;;;;;;20.42;58.16;100930.47;5036010;28;4039;-86
2023/09/01 08:42:27;;;;;;;;;;;;;;;20.46;58.52;100933.56;5033778;28;4151;-86
2023/09/01 08:44:53;;;;;;;;;;;;;;;20.51;57.99;100932.34;5046856;28;4134;-86
2023/09/01 08:47:22;;;;;;;;;;;;;;;20.55;57.66;100931.03;5031416;28;3950;-88
2023/09/01 08:49:50;;;;;;;;;;;;;;;20.56;57.96;100941.19;5036796;28;4044;-84
2023/09/01 08:52:19;;;;;;;;;;;;;;;20.34;58.23;100929.34;5033238;28;4159;-83
2023/09/01 08:54:45;;;;;;;;;;;;;;;20.38;58.12;100933.16;5034794;28;4034;-84
2023/09/01 08:57:12;;;;;;;;;;;;;;;20.14;59.38;100932.75;5032858;28;4183;-90
2023/09/01 08:59:38;;;;;;;;;;;;;;;20.12;58.70;100934.78;5034587;28;4466;-84
2023/09/01 09:02:05;;;;;;;;;;;;;;;20.08;59.36;100933.19;5032712;28;3929;-86
2023/09/01 09:04:32;;;;;;;;;;;;;;;19.98;59.46;100932.72;5034157;28;4351;-85
2023/09/01 09:07:12;;;;;;;;;;;;;;;20.20;59.33;100929.41;5034873;28;4161;-84
2023/09/01 09:09:51;;;;;;;;;;;;;;;20.29;58.68;100934.94;5030836;28;4085;-84
2023/09/01 09:12:18;;;;;;;;;;;;;;;20.71;57.34;100931.84;5030429;28;4151;-85
2023/09/01 09:14:50;;;;;;;;;;;;;;;20.14;58.38;100932.00;5026858;28;4093;-82
2023/09/01 09:17:24;;;;;;;;;;;;;;;20.92;56.68;100933.50;5028289;28;4390;-82
2023/09/01 09:19:51;;;;;;;;;;;;;;;20.89;56.27;100929.81;5046027;28;4177;-86
2023/09/01 09:22:17;;;;;;;;;;;;;;;21.17;55.93;100935.34;5030000;28;4108;-81
2023/09/01 09:24:44;;;;;;;;;;;;;;;21.12;55.72;100920.03;5029801;28;4060;-85
2023/09/01 09:27:13;;;;;;;;;;;;;;;21.03;55.53;100931.84;5043901;28;4171;-82
2023/09/01 09:29:40;;;;;;;;;;;;;;;20.63;55.28;100919.97;5046836;28;4155;-82
2023/09/01 09:32:20;;;;;;;;;;;;;;;20.87;55.09;100926.84;5031246;28;4129;-82
2023/09/01 09:35:05;;;;;;;;;;;;;;;20.53;56.30;100933.84;5032435;28;3978;-84
2023/09/01 09:37:32;;;;;;;;;;;;;;;20.82;55.34;100942.44;5034559;28;4167;-84
2023/09/01 09:40:12;;;;;;;;;;;;;;;21.09;55.05;100929.22;5035948;28;4128;-89
2023/09/01 09:42:39;;;;;;;;;;;;;;;21.29;54.31;100941.63;5032912;28;6651;-89
2023/09/01 09:45:06;;;;;;;;;;;;;;;21.24;54.25;100934.22;5051678;28;4218;-84
2023/09/01 09:47:33;;;;;;;;;;;;;;;21.17;53.91;100932.47;5029756;28;4012;-83
2023/09/01 09:49:59;;;;;;;;;;;;;;;21.28;53.78;100934.41;5047156;28;3943;-86
2023/09/01 09:52:26;;;;;;;;;;;;;;;21.37;53.78;100935.47;5031909;28;4405;-84
2023/09/01 09:54:57;;;;;;;;;;;;;;;20.87;54.34;100938.34;5044354;28;4184;-84
2023/09/01 09:57:23;;;;;;;;;;;;;;;21.28;54.17;100931.53;5024116;28;4089;-90
2023/09/01 09:59:56;;;;;;;;;;;;;;;21.41;53.61;100935.69;5032710;28;4164;-91
2023/09/01 10:02:24;;;;;;;;;;;;;;;21.50;53.52;100942.53;5053486;28;4065;-91
2023/09/01 10:04:52;;;;;;;;;;;;;;;21.53;53.34;100935.47;5032947;28;4072;-89
2023/09/01 10:07:18;;;;;;;;;;;;;;;21.56;53.44;100934.16;5041331;28;4141;-92
2023/09/01 10:09:44;;;;;;;;;;;;;;;21.58;53.71;100940.03;5052959;28;4298;-91
2023/09/01 10:12:11;;;;;;;;;;;;;;;21.59;53.77;100940.75;5039467;28;4232;-92
2023/09/01 10:14:39;;;;;;;;;;;;;;;21.60;53.90;100934.34;5047557;28;4177;-91
2023/09/01 10:17:06;;;;;;;;;;;;;;;21.62;54.13;100942.31;5055717;28;4087;-91
2023/09/01 10:19:33;;;;;;;;;;;;;;;21.62;53.92;100943.06;5062896;28;4374;-91
2023/09/01 10:22:00;;;;;;;;;;;;;;;21.64;54.08;100948.91;5040652;28;4170;-92
2023/09/01 10:24:26;;;;;;;;;;;;;;;21.64;54.27;100948.91;5057617;28;4340;-92
2023/09/01 10:27:05;;;;;;;;;;;;;;;21.61;54.60;100947.34;5032116;28;4870;-80
2023/09/01 10:29:34;;;;;;;;;;;;;;;21.55;53.28;100938.44;5026854;28;5621;-80
2023/09/01 10:32:17;;;;;;;;;;;;;;;21.44;54.23;100942.28;5051401;28;4173;-90
2023/09/01 10:34:49;;;;;;;;;;;;;;;21.57;53.29;100950.06;5047303;28;4147;-89
2023/09/01 10:37:26;;;;;;;;;;;;;;;21.63;52.89;100956.09;5045324;28;4521;-90
2023/09/01 10:39:52;;;;;;;;;;;;;;;21.65;53.36;100953.28;5036761;28;4148;-92
2023/09/01 10:42:37;;;;;;;;;;;;;;;21.66;53.58;100949.00;5047049;28;3918;-89
2023/09/01 10:45:05;;;;;;;;;;;;;;;21.68;53.67;100946.19;5047091;28;4133;-88
2023/09/01 10:47:32;;;;;;;;;;;;;;;21.70;54.11;100957.81;5059530;28;4129;-91
2023/09/01 10:49:58;;;;;;;;;;;;;;;21.71;54.38;100950.66;5046600;28;4862;-88
2023/09/01 10:52:26;;;;;;;;;;;;;;;21.72;54.43;100952.16;5047541;28;4290;-89
2023/09/01 10:54:59;;;;;;;;;;;;;;;21.72;54.49;100952.16;5044978;28;4133;-91
2023/09/01 10:57:38;;;;;;;;;;;;;;;21.72;54.23;100946.38;5045384;28;4262;-88
2023/09/01 11:00:23;;;;;;;;;;;;;;;21.73;54.55;100947.84;5048461;28;4831;-91
2023/09/01 11:02:49;;;;;;;;;;;;;;;21.75;54.37;100953.72;5048370;28;4085;-90
2023/09/01 11:05:34;;;;;;;;;;;;;;;21.77;54.77;100952.31;5060309;28;4213;-88
2023/09/01 11:08:21;;;;;;;;;;;;;;;21.78;54.77;100948.03;5032525;28;4105;-80
2023/09/01 11:10:47;;;;;;;;;;;;;;;21.73;54.10;100952.88;5033860;28;4125;-83
2023/09/01 11:13:17;;;;;;;;;;;;;;;21.71;53.33;100944.16;5031239;28;4434;-86
2023/09/01 11:15:46;;;;;;;;;;;;;;;21.75;52.65;100944.31;5035603;28;4152;-87
2023/09/01 11:18:16;;;;;;;;;;;;;;;21.73;52.01;100936.31;5032865;28;4100;-86
2023/09/01 11:20:44;;;;;;;;;;;;;;;21.77;51.84;100940.78;5031779;28;4201;-85
2023/09/01 11:23:10;;;;;;;;;;;;;;;21.78;52.25;100953.78;5037532;28;4155;-86
2023/09/01 11:25:36;;;;;;;;;;;;;;;21.77;52.53;100946.56;5032261;28;4282;-85
2023/09/01 11:28:03;;;;;;;;;;;;;;;21.79;53.01;100946.66;5033228;28;4042;-83
2023/09/01 11:30:29;;;;;;;;;;;;;;;21.81;52.71;100961.16;5034372;28;5438;-85
2023/09/01 11:32:56;;;;;;;;;;;;;;;21.78;52.85;100959.56;5031944;28;4012;-85
2023/09/01 11:35:27;;;;;;;;;;;;;;;21.81;52.43;100953.22;5035303;28;4009;-86
2023/09/01 11:37:53;;;;;;;;;;;;;;;21.83;52.62;100952.56;5036763;28;4085;-90
2023/09/01 11:40:21;;;;;;;;;;;;;;;22.18;51.36;100949.69;5045465;28;4208;-80
2023/09/01 11:42:47;;;;;;;;;;;;;;;21.94;52.75;100949.47;5034395;28;4174;-89
2023/09/01 11:45:14;;;;;;;;;;;;;;;21.90;52.49;100945.66;5040477;28;4198;-90
2023/09/01 11:47:40;;;;;;;;;;;;;;;22.09;53.10;100961.56;5034782;28;4153;-76
2023/09/01 11:50:11;;;;;;;;;;;;;;;22.17;52.92;100967.66;5031345;28;4156;-88
2023/09/01 11:52:50;;;;;;;;;;;;;;;22.35;51.98;100967.69;5038051;28;4031;-83
2023/09/01 11:55:33;;;;;;;;;;;;;;;22.43;52.23;100973.06;5043884;28;4007;-89
2023/09/01 11:57:59;;;;;;;;;;;;;;;22.43;51.94;100984.59;5042638;28;4126;-90
2023/09/01 12:00:29;;;;;;;;;;;;;;;22.40;52.33;100969.31;5043883;28;3996;-90
2023/09/01 12:02:55;;;;;;;;;;;;;;;22.43;52.24;100962.25;5040406;28;4029;-88
2023/09/01 12:05:35;;;;;;;;;;;;;;;22.50;52.48;100957.47;5039887;28;4106;-87
2023/09/01 12:08:02;;;;;;;;;;;;;;;22.51;52.25;100948.13;5041796;28;4227;-86
2023/09/01 12:10:29;;;;;;;;;;;;;;;22.59;52.32;100942.66;5043620;28;4111;-87
2023/09/01 12:13:05;;;;;;;;;;;;;;;22.45;52.78;100945.00;5038818;28;4077;-82
2023/09/01 12:15:31;;;;;;;;;;;;;;;22.34;53.11;100943.13;5040954;28;4266;-85
2023/09/01 12:17:58;;;;;;;;;;;;;;;22.48;53.45;100948.72;5048424;28;4040;-90
2023/09/01 12:20:24;;;;;;;;;;;;;;;22.73;52.73;100939.59;5043006;28;4175;-90
2023/09/01 12:22:51;;;;;;;;;;;;;;;22.80;52.73;100946.34;5039204;28;4193;-90
2023/09/01 12:25:17;;;;;;;;;;;;;;;22.82;52.48;100949.31;5035517;28;4196;-86
2023/09/01 12:27:44;;;;;;;;;;;;;;;22.66;52.57;100948.69;5030856;28;4075;-80
2023/09/01 12:30:10;;;;;;;;;;;;;;;22.98;52.49;100949.91;5032518;28;4486;-82
2023/09/01 12:32:37;;;;;;;;;;;;;;;23.21;52.06;100959.41;5043706;28;4468;-83
2023/09/01 12:35:03;;;;;;;;;;;;;;;22.86;53.00;100952.34;5030953;28;4126;-85
2023/09/01 12:37:30;;;;;;;;;;;;;;;22.49;53.53;100959.56;5034538;28;4184;-89
2023/09/01 12:39:56;;;;;;;;;;;;;;;22.58;53.74;100946.94;5029496;28;4233;-87
2023/09/01 12:42:23;;;;;;;;;;;;;;;22.62;54.05;100948.53;5034561;28;4124;-90
2023/09/01 12:44:49;;;;;;;;;;;;;;;22.84;53.54;100952.25;5039529;28;4017;-86
2023/09/01 12:47:15;;;;;;;;;;;;;;;23.07;52.89;100956.00;5031775;28;4218;-84
2023/09/01 12:49:43;;;;;;;;;;;;;;;23.24;52.67;100963.84;5049587;28;4027;-84
2023/09/01 12:52:10;;;;;;;;;;;;;;;23.28;52.42;100949.56;5031994;28;4102;-84